MX-0178 weather

CLOSED Las Choapas Airport
Las Choapas, Veracruz, Mexico

Public forecast

Using degrees Celsius for public forecast. Weather courtesy of forecast.io.

Closest aviation weather report (METAR) to Las Choapas Airport

Report is more than 6 hours old.

Closest report is Minatitl├ín/Coatzacoalcos National Airport, 31.8 nm (58.8 km) WNW. Retrieved 2020/07/12 23:50 UTC (8 hours ago):

MMMT 122350Z 00000KT 7SM SCT200 30/26 A2984 RMK SLP179 57014 964 8/002

Closest aviation forecast (TAF) to Las Choapas Airport

Closest forecast is Minatitl├ín/Coatzacoalcos National Airport, 31.8 nm (58.8 km) WNW. Retrieved 2020/07/13 06:08 UTC (2 hours ago):

TAF MMMT 130501Z 1306/1406 00000KT P6SM SCT200 BECMG 1308/1309 BKN020 BKN200 TEMPO 1310/1314 5SM RA VC TS BKN020CB FM131600 03010KT P6SM SCT020 BKN200 FM140100 02005KT P6SM SCT200